Time;durP1;ratioP1;P1;durP2;ratioP2;P2;SDS_P1;SDS_P2;PMS_P1;PMS_P2;Temp;Humidity;BMP_temperature;BMP_pressure;BME280_temperature;BME280_humidity;BME280_pressure;Samples;Min_cycle;Max_cycle;Signal;HPM_P1;HPM_P2
2022/06/17 00:01:00;;;;;;;8.32;6.22;;;15.40;99.90;;;;;;5053943;28;20429;-63
2022/06/17 00:03:29;;;;;;;6.10;5.50;;;15.40;99.90;;;;;;5050945;28;21032;-62
2022/06/17 00:05:57;;;;;;;8.18;6.13;;;15.40;99.90;;;;;;5053364;28;20029;-63
2022/06/17 00:08:37;;;;;;;7.78;5.70;;;15.30;99.90;;;;;;5054972;28;20040;-62
2022/06/17 00:11:09;;;;;;;8.48;5.55;;;15.40;99.90;;;;;;5055055;28;20163;-62
2022/06/17 00:13:35;;;;;;;7.20;6.47;;;15.30;99.90;;;;;;5043950;28;20040;-62
2022/06/17 00:16:01;;;;;;;9.63;6.40;;;15.30;99.90;;;;;;5056238;28;20552;-62
2022/06/17 00:18:26;;;;;;;13.27;7.68;;;15.30;99.90;;;;;;5058717;28;20848;-62
2022/06/17 00:20:52;;;;;;;8.85;7.13;;;15.30;99.90;;;;;;5034417;28;20055;-62
2022/06/17 00:23:21;;;;;;;9.00;6.95;;;15.30;99.90;;;;;;5054422;28;20048;-62
2022/06/17 00:25:48;;;;;;;10.88;6.90;;;15.30;99.90;;;;;;5053725;28;20436;-62
2022/06/17 00:28:19;;;;;;;9.70;6.68;;;15.30;99.90;;;;;;5055237;28;20483;-62
2022/06/17 00:30:46;;;;;;;10.27;7.40;;;15.30;99.90;;;;;;5051092;28;20068;-62
2022/06/17 00:33:13;;;;;;;9.30;7.10;;;15.30;99.90;;;;;;5048343;28;20049;-62
2022/06/17 00:35:46;;;;;;;7.63;6.20;;;15.30;99.90;;;;;;5035176;28;20647;-62
2022/06/17 00:38:15;;;;;;;9.70;7.05;;;15.20;99.90;;;;;;5054192;28;20554;-62
2022/06/17 00:40:43;;;;;;;7.10;6.40;;;15.20;99.90;;;;;;5047702;28;20504;-62
2022/06/17 00:43:26;;;;;;;8.13;6.15;;;15.10;99.90;;;;;;5037812;28;20040;-62
2022/06/17 00:46:14;;;;;;;10.18;7.93;;;15.10;99.90;;;;;;5044747;28;20135;-62
2022/06/17 00:48:49;;;;;;;8.85;6.97;;;15.10;99.90;;;;;;5046215;28;20063;-62
2022/06/17 00:51:20;;;;;;;9.45;6.97;;;15.10;99.90;;;;;;5066838;28;20087;-62
2022/06/17 00:53:59;;;;;;;8.70;7.53;;;15.10;99.90;;;;;;5063978;28;20094;-63
2022/06/17 00:56:35;;;;;;;8.57;7.45;;;15.00;99.90;;;;;;5037025;28;20475;-62
2022/06/17 00:59:10;;;;;;;9.55;8.32;;;15.00;99.90;;;;;;5056587;28;20059;-62
2022/06/17 01:01:50;;;;;;;10.05;8.43;;;15.00;99.90;;;;;;5052795;28;20155;-62
2022/06/17 01:04:20;;;;;;;12.95;8.95;;;15.00;99.90;;;;;;5052319;28;20762;-62
2022/06/17 01:06:57;;;;;;;11.32;9.25;;;15.00;99.90;;;;;;5053821;28;20113;-62
2022/06/17 01:12:19;;;;;;;11.50;8.63;;;15.10;99.90;;;;;;5051977;28;20037;-62
2022/06/17 01:14:45;;;;;;;12.90;8.45;;;15.10;99.90;;;;;;5049373;28;20045;-62
2022/06/17 01:17:15;;;;;;;10.40;7.97;;;15.10;99.90;;;;;;5046066;28;20052;-62
2022/06/17 01:19:45;;;;;;;11.00;7.72;;;15.10;99.90;;;;;;5055267;28;20048;-62
2022/06/17 01:22:33;;;;;;;11.82;8.90;;;15.10;99.90;;;;;;5045340;28;20233;-62
2022/06/17 01:25:03;;;;;;;11.13;7.50;;;15.10;99.90;;;;;;5054972;28;20466;-62
2022/06/17 01:27:36;;;;;;;11.80;8.90;;;15.10;99.90;;;;;;5057796;28;20050;-62
2022/06/17 01:30:04;;;;;;;14.32;8.85;;;15.10;99.90;;;;;;5050525;28;20049;-62
2022/06/17 01:32:35;;;;;;;12.63;8.88;;;15.00;99.90;;;;;;5050968;28;20135;-62
2022/06/17 01:35:02;;;;;;;14.60;8.00;;;15.00;99.90;;;;;;5051064;28;20490;-62
2022/06/17 01:37:31;;;;;;;9.00;7.72;;;15.00;99.90;;;;;;5045352;28;20040;-62
2022/06/17 01:39:57;;;;;;;11.70;8.27;;;15.00;99.90;;;;;;5048544;28;20048;-62
2022/06/17 01:42:25;;;;;;;9.02;7.30;;;15.00;99.90;;;;;;5050967;28;20126;-62
2022/06/17 01:44:54;;;;;;;11.63;8.63;;;14.90;99.90;;;;;;5053683;28;20518;-62
2022/06/17 01:47:24;;;;;;;11.15;7.43;;;14.90;99.90;;;;;;5048998;28;20123;-62
2022/06/17 01:49:56;;;;;;;8.98;7.60;;;14.90;99.90;;;;;;5044931;28;20127;-62
2022/06/17 01:52:32;;;;;;;12.10;9.25;;;14.90;99.90;;;;;;5032313;28;20060;-62
2022/06/17 01:55:04;;;;;;;11.48;8.93;;;14.90;99.90;;;;;;5051834;28;20503;-62
2022/06/17 01:57:39;;;;;;;10.13;8.00;;;14.90;99.90;;;;;;5050778;28;20041;-61
2022/06/17 02:00:19;;;;;;;10.93;8.48;;;14.90;99.90;;;;;;5052417;28;20491;-62
2022/06/17 02:02:51;;;;;;;12.88;8.75;;;14.90;99.90;;;;;;5034438;28;20131;-61
2022/06/17 02:05:18;;;;;;;10.25;8.18;;;14.90;99.90;;;;;;5026528;28;20048;-61
2022/06/17 02:07:52;;;;;;;12.93;8.45;;;14.90;99.90;;;;;;5049798;28;20055;-62
2022/06/17 02:10:20;;;;;;;10.38;7.03;;;14.90;99.90;;;;;;5048641;28;20052;-62
2022/06/17 02:12:46;;;;;;;9.93;8.00;;;14.80;99.90;;;;;;5050616;28;20056;-62
2022/06/17 02:15:13;;;;;;;11.60;8.32;;;14.80;99.90;;;;;;5052772;28;20094;-62
2022/06/17 02:17:42;;;;;;;9.55;7.68;;;14.80;99.90;;;;;;5051736;28;20517;-62
2022/06/17 02:20:11;;;;;;;9.57;7.57;;;14.80;99.90;;;;;;5040577;28;20047;-62
2022/06/17 02:22:37;;;;;;;12.32;7.97;;;14.80;99.90;;;;;;5017060;28;20044;-62
2022/06/17 02:25:22;;;;;;;8.20;7.10;;;14.80;99.90;;;;;;5050779;28;20048;-62
2022/06/17 02:27:54;;;;;;;9.63;7.10;;;14.80;99.90;;;;;;5035240;28;20126;-62
2022/06/17 02:30:20;;;;;;;10.85;7.20;;;14.70;99.90;;;;;;5063903;28;20499;-62
2022/06/17 02:32:47;;;;;;;10.90;7.72;;;14.70;99.90;;;;;;5051136;28;20494;-62
2022/06/17 02:35:28;;;;;;;10.30;7.50;;;14.70;99.90;;;;;;5049945;28;20169;-62
2022/06/17 02:37:54;;;;;;;9.60;6.32;;;14.60;99.90;;;;;;5053688;28;20051;-62
2022/06/17 02:40:40;;;;;;;9.65;7.22;;;14.60;99.90;;;;;;5041373;28;20049;-61
2022/06/17 02:43:12;;;;;;;12.40;6.90;;;14.60;99.90;;;;;;5029329;28;23892;-61
2022/06/17 02:45:50;;;;;;;11.65;6.65;;;14.60;99.90;;;;;;5050358;28;20090;-61
2022/06/17 02:48:28;;;;;;;7.18;5.90;;;14.60;99.90;;;;;;5052636;28;20433;-62
2022/06/17 02:50:56;;;;;;;9.85;7.03;;;14.60;99.90;;;;;;5044423;28;20585;-62
2022/06/17 02:53:33;;;;;;;10.90;6.25;;;14.60;99.90;;;;;;5058010;28;20052;-61
2022/06/17 02:56:03;;;;;;;11.98;7.05;;;14.50;99.90;;;;;;5059338;28;20045;-61
2022/06/17 02:58:34;;;;;;;8.38;6.25;;;14.50;99.90;;;;;;5059167;28;20202;-62
2022/06/17 03:01:00;;;;;;;8.90;6.38;;;14.50;99.90;;;;;;5056520;28;20202;-61
2022/06/17 03:03:27;;;;;;;9.10;6.45;;;14.50;99.90;;;;;;5053705;28;20036;-62
2022/06/17 03:05:53;;;;;;;8.73;6.15;;;14.50;99.90;;;;;;5050080;28;20052;-62
2022/06/17 03:08:27;;;;;;;10.02;6.15;;;14.50;99.90;;;;;;5059791;28;20127;-62
2022/06/17 03:10:56;;;;;;;8.27;5.65;;;14.50;99.90;;;;;;5051865;28;20109;-62
2022/06/17 03:13:36;;;;;;;9.05;6.00;;;14.50;99.90;;;;;;5061546;28;20052;-62
2022/06/17 03:16:05;;;;;;;10.23;5.60;;;14.60;99.90;;;;;;5061138;28;20040;-62
2022/06/17 03:18:31;;;;;;;7.38;5.65;;;14.60;99.90;;;;;;5062342;28;20045;-62
2022/06/17 03:21:00;;;;;;;9.30;5.63;;;14.70;99.90;;;;;;5058406;28;20048;-62
2022/06/17 03:23:51;;;;;;;7.28;5.22;;;14.70;99.90;;;;;;5060820;28;20573;-62
2022/06/17 03:26:22;;;;;;;9.20;6.15;;;14.80;99.90;;;;;;5060738;28;20495;-62
2022/06/17 03:28:49;;;;;;;6.80;5.03;;;14.80;99.90;;;;;;5064676;28;20053;-62
2022/06/17 03:31:36;;;;;;;8.40;5.13;;;14.80;99.90;;;;;;5061505;28;20044;-62
2022/06/17 03:34:15;;;;;;;7.97;5.15;;;14.80;99.90;;;;;;5051523;28;20040;-62
2022/06/17 03:36:50;;;;;;;11.82;5.57;;;14.90;99.90;;;;;;5058035;28;20094;-61
2022/06/17 03:39:38;;;;;;;8.40;5.18;;;14.90;99.90;;;;;;5054234;28;20391;-62
2022/06/17 03:42:50;;;;;;;8.65;5.03;;;14.90;99.90;;;;;;5057614;28;20411;-61
2022/06/17 03:45:20;;;;;;;6.70;4.90;;;15.00;99.90;;;;;;5057728;28;20049;-61
2022/06/17 03:48:01;;;;;;;7.10;4.93;;;15.00;99.90;;;;;;5059453;28;20078;-62
2022/06/17 03:50:32;;;;;;;9.98;5.40;;;15.00;99.90;;;;;;5058936;28;20064;-62
2022/06/17 03:53:14;;;;;;;9.80;5.25;;;15.00;99.90;;;;;;5065186;28;20049;-62
2022/06/17 03:55:40;;;;;;;8.67;5.27;;;15.00;99.90;;;;;;5041187;28;20036;-62
2022/06/17 03:58:06;;;;;;;7.82;5.38;;;15.00;99.90;;;;;;5060408;28;20353;-61
2022/06/17 04:00:51;;;;;;;11.43;5.28;;;15.00;99.90;;;;;;5038665;28;20048;-62
2022/06/17 04:03:21;;;;;;;9.85;5.13;;;15.10;99.90;;;;;;5059325;28;20113;-62
2022/06/17 04:05:55;;;;;;;6.95;4.93;;;15.10;99.90;;;;;;5059491;28;20332;-62
2022/06/17 04:08:20;;;;;;;9.68;5.30;;;15.10;99.90;;;;;;5061482;28;20049;-61
2022/06/17 04:10:46;;;;;;;8.65;4.97;;;15.20;99.90;;;;;;5057241;28;20063;-61
2022/06/17 04:13:16;;;;;;;11.95;5.35;;;15.20;99.90;;;;;;5055148;28;20130;-61
2022/06/17 04:16:20;;;;;;;5.90;4.40;;;15.30;99.90;;;;;;5057857;28;20129;-61
2022/06/17 04:18:46;;;;;;;8.50;4.50;;;15.40;99.90;;;;;;5027978;28;20080;-62
2022/06/17 04:21:15;;;;;;;7.53;4.60;;;15.40;99.90;;;;;;5045459;28;20122;-61
2022/06/17 04:23:44;;;;;;;8.75;4.47;;;15.50;99.90;;;;;;5060696;28;20036;-61
2022/06/17 04:26:25;;;;;;;6.60;4.68;;;15.50;99.90;;;;;;5057664;28;20079;-62
2022/06/17 04:28:58;;;;;;;6.78;4.40;;;15.60;99.90;;;;;;5060177;28;20079;-62
2022/06/17 04:31:26;;;;;;;8.77;5.00;;;15.60;99.90;;;;;;5067265;28;20131;-62
2022/06/17 04:34:02;;;;;;;5.78;4.38;;;15.70;99.90;;;;;;5026771;28;20415;-62
2022/06/17 04:36:55;;;;;;;8.68;4.70;;;15.70;99.90;;;;;;5056601;28;20071;-62
2022/06/17 04:39:37;;;;;;;7.88;4.68;;;15.70;99.90;;;;;;5058304;28;20083;-62
2022/06/17 04:42:13;;;;;;;8.55;5.07;;;15.80;99.90;;;;;;5057128;28;20060;-61
2022/06/17 04:44:40;;;;;;;6.85;4.72;;;15.80;99.90;;;;;;5066431;28;20323;-63
2022/06/17 04:47:12;;;;;;;7.68;4.53;;;15.80;99.90;;;;;;5042109;28;20040;-62
2022/06/17 04:49:43;;;;;;;9.83;5.20;;;15.80;99.90;;;;;;5057851;28;20036;-62
2022/06/17 04:52:26;;;;;;;8.65;5.15;;;15.80;99.90;;;;;;5058635;28;20057;-61
2022/06/17 04:54:53;;;;;;;;;;;15.80;99.90;;;;;;5061657;28;20052;-62
2022/06/17 04:57:19;;;;;;;9.13;5.32;;;15.90;99.90;;;;;;5058451;28;19921;-61
2022/06/17 04:59:46;;;;;;;7.47;5.57;;;15.90;99.90;;;;;;5057822;28;20044;-62
2022/06/17 05:02:16;;;;;;;9.68;4.70;;;15.90;99.90;;;;;;5058303;28;20134;-61
2022/06/17 05:04:42;;;;;;;10.40;5.70;;;15.90;99.90;;;;;;5052817;28;20054;-62
2022/06/17 05:07:08;;;;;;;8.10;5.72;;;15.90;99.90;;;;;;5070354;28;20040;-62
2022/06/17 05:09:43;;;;;;;8.35;6.03;;;15.90;99.90;;;;;;5058800;28;20177;-62
2022/06/17 05:12:22;;;;;;;9.25;5.70;;;15.90;99.90;;;;;;5059421;28;20052;-62
2022/06/17 05:14:57;;;;;;;10.60;6.18;;;15.90;99.90;;;;;;5045042;28;20036;-62
2022/06/17 05:17:23;;;;;;;7.88;5.80;;;15.90;99.90;;;;;;5052645;28;20072;-62
2022/06/17 05:19:49;;;;;;;7.57;5.80;;;15.90;99.90;;;;;;5056655;28;20538;-61
2022/06/17 05:22:31;;;;;;;11.55;5.80;;;15.90;99.90;;;;;;5040358;28;20049;-62
2022/06/17 05:24:57;;;;;;;11.50;6.20;;;15.90;99.90;;;;;;5058901;28;20044;-62
2022/06/17 05:27:23;;;;;;;8.98;5.85;;;15.90;99.90;;;;;;5048055;28;20040;-62
2022/06/17 05:29:49;;;;;;;9.00;5.35;;;15.90;99.90;;;;;;5052763;28;20513;-62
2022/06/17 05:32:19;;;;;;;8.43;5.85;;;15.90;99.90;;;;;;5047434;28;20094;-62
2022/06/17 05:34:45;;;;;;;8.75;5.80;;;15.90;99.90;;;;;;5051693;28;21008;-62
2022/06/17 05:37:12;;;;;;;7.88;5.53;;;15.90;99.90;;;;;;5055579;28;20501;-62
2022/06/17 05:39:38;;;;;;;8.32;5.68;;;16.00;99.90;;;;;;5061598;28;20615;-61
2022/06/17 05:42:05;;;;;;;7.57;5.60;;;16.00;99.90;;;;;;5039048;28;20079;-62
2022/06/17 05:44:32;;;;;;;11.13;6.10;;;16.00;99.90;;;;;;5040926;28;20495;-62
2022/06/17 05:46:57;;;;;;;8.60;5.60;;;16.10;99.90;;;;;;5050863;28;20087;-62
2022/06/17 05:49:24;;;;;;;12.18;6.25;;;16.10;99.90;;;;;;5043184;28;20052;-62
2022/06/17 05:51:49;;;;;;;8.27;6.00;;;16.10;99.90;;;;;;5057926;28;20059;-61
2022/06/17 05:54:15;;;;;;;8.30;6.45;;;16.20;99.90;;;;;;5059686;28;20441;-62
2022/06/17 05:56:41;;;;;;;8.88;5.95;;;16.20;99.90;;;;;;5054068;28;20051;-62
2022/06/17 05:59:07;;;;;;;7.90;5.60;;;16.20;99.90;;;;;;5059445;28;20495;-62
2022/06/17 06:01:33;;;;;;;8.40;5.80;;;16.30;99.90;;;;;;5054348;28;20040;-61
2022/06/17 06:03:59;;;;;;;8.20;6.32;;;16.40;99.90;;;;;;5036330;28;20099;-62
2022/06/17 06:06:25;;;;;;;8.63;5.90;;;16.40;99.90;;;;;;5053346;28;20048;-62
2022/06/17 06:08:50;;;;;;;10.32;6.30;;;16.50;99.90;;;;;;5052920;28;20056;-62
2022/06/17 06:11:16;;;;;;;8.93;6.07;;;16.50;99.90;;;;;;5053219;28;20768;-61
2022/06/17 06:13:42;;;;;;;13.18;6.55;;;16.50;99.90;;;;;;5012498;28;20052;-63
2022/06/17 06:16:08;;;;;;;9.32;6.53;;;16.60;99.90;;;;;;5036568;28;20123;-61
2022/06/17 06:18:39;;;;;;;10.65;6.10;;;16.60;99.90;;;;;;5059502;28;20435;-61
2022/06/17 06:21:06;;;;;;;8.80;6.20;;;16.70;99.90;;;;;;5061738;28;20044;-62
2022/06/17 06:23:37;;;;;;;7.35;5.93;;;16.70;99.90;;;;;;5063165;28;20433;-62
2022/06/17 06:26:05;;;;;;;15.50;6.55;;;16.80;99.90;;;;;;5060464;28;20066;-62
2022/06/17 06:28:31;;;;;;;8.10;6.28;;;16.80;99.90;;;;;;5055214;28;20040;-62
2022/06/17 06:31:04;;;;;;;11.27;6.18;;;16.90;99.90;;;;;;5061371;28;20453;-62
2022/06/17 06:33:29;;;;;;;10.70;6.30;;;16.90;99.90;;;;;;5060540;28;20041;-62
2022/06/17 06:35:55;;;;;;;10.27;6.68;;;17.00;99.90;;;;;;5061532;28;20093;-62
2022/06/17 06:38:21;;;;;;;9.93;6.13;;;17.00;99.90;;;;;;5029348;28;20403;-62
2022/06/17 06:40:47;;;;;;;10.65;6.78;;;17.10;99.90;;;;;;5052478;28;20145;-62
2022/06/17 06:43:16;;;;;;;7.45;6.28;;;17.20;99.90;;;;;;5055756;28;20039;-62
2022/06/17 06:45:44;;;;;;;11.77;6.65;;;17.30;99.90;;;;;;5059840;28;20041;-62
2022/06/17 06:48:11;;;;;;;7.32;6.22;;;17.40;99.90;;;;;;5060222;28;20402;-62
2022/06/17 06:50:38;;;;;;;9.27;6.70;;;17.50;99.90;;;;;;5056536;28;20056;-62
2022/06/17 06:53:05;;;;;;;14.23;6.05;;;17.60;99.90;;;;;;5055933;28;20992;-62
2022/06/17 06:55:32;;;;;;;10.30;6.60;;;17.70;99.90;;;;;;5051910;28;20044;-62
2022/06/17 06:58:05;;;;;;;7.60;6.75;;;17.80;99.90;;;;;;5029127;28;20051;-62
2022/06/17 07:00:38;;;;;;;10.13;6.50;;;17.90;99.90;;;;;;5038238;28;20543;-62
2022/06/17 07:03:04;;;;;;;12.02;6.68;;;18.00;99.90;;;;;;5058495;28;20082;-61
2022/06/17 07:05:31;;;;;;;9.68;6.03;;;18.10;99.90;;;;;;5058880;28;20447;-62
2022/06/17 07:07:58;;;;;;;9.32;6.45;;;18.30;99.90;;;;;;5054241;28;20036;-62
2022/06/17 07:10:27;;;;;;;11.30;6.35;;;18.30;99.90;;;;;;5022292;28;20048;-62
2022/06/17 07:12:54;;;;;;;11.50;6.32;;;18.40;99.90;;;;;;5056155;28;20102;-62
2022/06/17 07:15:21;;;;;;;8.77;6.05;;;18.40;99.90;;;;;;5039806;28;20049;-62
2022/06/17 07:17:59;;;;;;;12.82;6.20;;;18.50;99.80;;;;;;5056263;28;20041;-62
2022/06/17 07:20:26;;;;;;;8.85;6.68;;;18.60;99.80;;;;;;5053653;28;20099;-62
2022/06/17 07:22:52;;;;;;;10.80;6.70;;;18.50;99.50;;;;;;5055204;28;20398;-62
2022/06/17 07:25:19;;;;;;;10.95;6.38;;;18.60;99.60;;;;;;5052290;28;20105;-62
2022/06/17 07:27:45;;;;;;;8.50;6.30;;;18.60;99.60;;;;;;5052231;28;20097;-62
2022/06/17 07:30:19;;;;;;;10.00;6.05;;;18.70;99.40;;;;;;5056463;28;20049;-62
2022/06/17 07:32:45;;;;;;;12.85;6.20;;;18.80;99.30;;;;;;5041410;28;20112;-62
2022/06/17 07:35:12;;;;;;;8.55;5.75;;;18.90;99.10;;;;;;5058628;28;20033;-62
2022/06/17 07:40:22;;;;;;;8.40;6.00;;;19.00;99.00;;;;;;5042747;28;20449;-62
2022/06/17 07:42:48;;;;;;;8.48;6.20;;;19.20;99.00;;;;;;5059752;28;20040;-62
2022/06/17 07:45:18;;;;;;;9.50;5.80;;;19.30;98.80;;;;;;5060811;28;20055;-62
2022/06/17 07:47:47;;;;;;;8.82;6.22;;;19.40;98.60;;;;;;5055540;28;20052;-62
2022/06/17 07:50:16;;;;;;;9.55;6.07;;;19.50;98.20;;;;;;5019282;28;20575;-62
2022/06/17 07:52:42;;;;;;;9.25;6.38;;;19.60;97.90;;;;;;5056854;28;20155;-62
2022/06/17 07:55:09;;;;;;;8.07;6.05;;;19.70;97.90;;;;;;5057764;28;20049;-62
2022/06/17 07:57:35;;;;;;;8.10;5.63;;;19.80;97.60;;;;;;5057052;28;20045;-62
2022/06/17 08:00:01;;;;;;;11.85;6.03;;;19.80;97.50;;;;;;5055353;28;20045;-62
2022/06/17 08:02:27;;;;;;;8.18;6.53;;;19.90;97.30;;;;;;5026659;28;20059;-62
2022/06/17 08:04:53;;;;;;;10.13;6.10;;;20.00;96.80;;;;;;5063956;28;20052;-61
2022/06/17 08:07:19;;;;;;;8.63;5.45;;;20.00;96.70;;;;;;5059962;28;20048;-62
2022/06/17 08:09:45;;;;;;;7.32;5.50;;;20.10;96.60;;;;;;5046127;28;20040;-62
2022/06/17 08:12:13;;;;;;;8.07;5.60;;;20.10;96.50;;;;;;5050884;28;20293;-62
2022/06/17 08:14:44;;;;;;;8.85;5.90;;;20.20;96.50;;;;;;5026696;28;20036;-62
2022/06/17 08:17:12;;;;;;;9.45;5.93;;;20.30;96.60;;;;;;5054112;28;20060;-62
2022/06/17 08:19:39;;;;;;;11.40;6.00;;;20.40;96.60;;;;;;5062569;28;20063;-63
2022/06/17 08:22:05;;;;;;;10.75;5.63;;;20.40;96.40;;;;;;5057191;28;20483;-62
2022/06/17 08:24:31;;;;;;;10.20;5.97;;;20.50;96.60;;;;;;5044441;28;20055;-62
2022/06/17 08:26:57;;;;;;;10.63;6.13;;;20.60;96.60;;;;;;5060391;28;20060;-62
2022/06/17 08:29:26;;;;;;;11.05;5.80;;;20.80;96.20;;;;;;5051861;28;20494;-63
2022/06/17 08:31:52;;;;;;;7.65;5.53;;;20.90;96.30;;;;;;5035075;28;20735;-63
2022/06/17 08:34:18;;;;;;;8.23;5.88;;;21.00;95.80;;;;;;5060769;28;20040;-62
2022/06/17 08:36:45;;;;;;;8.23;5.70;;;21.10;95.50;;;;;;5061299;28;20040;-63
2022/06/17 08:39:13;;;;;;;7.07;5.20;;;21.30;95.30;;;;;;5063607;28;20521;-62
2022/06/17 08:42:09;;;;;;;10.48;5.72;;;21.40;94.80;;;;;;5026655;28;20113;-62
2022/06/17 08:44:41;;;;;;;10.15;5.93;;;21.40;94.70;;;;;;5060264;28;20123;-63
2022/06/17 08:47:21;;;;;;;9.63;5.90;;;21.50;93.80;;;;;;5062758;28;20097;-62
2022/06/17 08:49:55;;;;;;;8.35;5.70;;;21.50;93.40;;;;;;5059628;28;20044;-63
2022/06/17 08:52:37;;;;;;;8.88;5.47;;;21.50;93.60;;;;;;5053466;28;20507;-63
2022/06/17 08:55:18;;;;;;;11.48;6.18;;;21.50;93.90;;;;;;5062337;28;20048;-62
2022/06/17 08:58:00;;;;;;;8.40;5.88;;;21.50;93.00;;;;;;5061017;28;20049;-62
2022/06/17 09:01:10;;;;;;;9.38;5.57;;;21.50;92.60;;;;;;5061780;28;20492;-62
2022/06/17 09:03:45;;;;;;;12.00;6.07;;;21.50;92.50;;;;;;4980197;28;20559;-63
2022/06/17 09:06:34;;;;;;;10.40;5.40;;;21.50;92.40;;;;;;4984024;28;20157;-63
2022/06/17 09:09:32;;;;;;;10.25;6.00;;;21.60;92.40;;;;;;5035854;28;20535;-62
2022/06/17 09:12:33;;;;;;;6.75;4.70;;;21.60;92.60;;;;;;5063382;28;20441;-62
2022/06/17 09:15:31;;;;;;;9.68;5.20;;;21.70;92.30;;;;;;5064470;28;20505;-61
2022/06/17 09:18:07;;;;;;;10.02;5.10;;;21.80;92.40;;;;;;5058473;28;20043;-62
2022/06/17 09:20:39;;;;;;;8.00;4.82;;;21.80;91.70;;;;;;5059754;28;20478;-61
2022/06/17 09:23:08;;;;;;;8.55;4.60;;;21.80;91.30;;;;;;5036417;28;20044;-62
2022/06/17 09:25:46;;;;;;;7.78;4.72;;;21.80;91.40;;;;;;5063051;28;20048;-62
2022/06/17 09:28:24;;;;;;;6.07;4.43;;;21.90;90.60;;;;;;5063922;28;20048;-62
2022/06/17 09:30:58;;;;;;;8.90;4.55;;;21.90;90.80;;;;;;5063140;28;20049;-62
2022/06/17 09:33:40;;;;;;;7.78;5.30;;;21.90;90.60;;;;;;5064586;28;20529;-62
2022/06/17 09:36:16;;;;;;;9.15;4.80;;;22.10;90.60;;;;;;5057570;28;20040;-62
2022/06/17 09:38:52;;;;;;;6.50;4.60;;;22.20;90.40;;;;;;5063213;28;20067;-62
2022/06/17 09:41:59;;;;;;;10.25;5.40;;;22.60;90.40;;;;;;5063932;28;20044;-62
2022/06/17 09:44:33;;;;;;;9.93;4.90;;;23.00;90.70;;;;;;5013264;28;20048;-63
2022/06/17 09:47:05;;;;;;;10.93;5.28;;;23.20;88.80;;;;;;5062771;28;20056;-62
2022/06/17 09:49:44;;;;;;;6.88;4.30;;;23.40;88.10;;;;;;5053749;28;20045;-63
2022/06/17 09:52:21;;;;;;;11.40;4.28;;;23.50;86.90;;;;;;5048086;28;20055;-62
2022/06/17 09:55:10;;;;;;;8.77;4.32;;;23.50;86.00;;;;;;5061264;28;20036;-62
2022/06/17 09:58:00;;;;;;;9.13;4.53;;;23.40;84.70;;;;;;5059797;28;20057;-62
2022/06/17 10:00:31;;;;;;;6.57;3.97;;;23.30;82.60;;;;;;5060054;28;20045;-62
2022/06/17 10:03:30;;;;;;;9.77;4.18;;;23.30;81.80;;;;;;5010492;28;20059;-63
2022/06/17 10:06:14;;;;;;;8.50;4.32;;;23.20;82.70;;;;;;5054568;28;20105;-63
2022/06/17 10:09:12;;;;;;;11.68;4.07;;;23.20;83.90;;;;;;5058497;28;20098;-62
2022/06/17 10:11:57;;;;;;;8.25;4.20;;;23.20;84.30;;;;;;5050789;28;20037;-63
2022/06/17 10:14:38;;;;;;;8.65;4.05;;;23.20;84.70;;;;;;5057680;28;20045;-63
2022/06/17 10:20:28;;;;;;;8.45;3.90;;;23.20;83.20;;;;;;5056497;28;20127;-63
2022/06/17 10:23:06;;;;;;;7.90;3.85;;;23.20;83.80;;;;;;5051881;28;20036;-63
2022/06/17 10:25:44;;;;;;;9.07;3.70;;;23.20;83.30;;;;;;5055911;28;20391;-63
2022/06/17 10:28:55;;;;;;;14.10;3.72;;;23.20;82.90;;;;;;5039856;28;20052;-62
2022/06/17 10:31:39;;;;;;;6.65;3.90;;;23.20;83.60;;;;;;5025619;28;20052;-62
2022/06/17 10:34:18;;;;;;;6.80;3.75;;;23.20;82.50;;;;;;5052250;28;20040;-62
2022/06/17 10:36:45;;;;;;;8.93;3.88;;;23.20;80.50;;;;;;5055127;28;20043;-62
2022/06/17 10:39:14;;;;;;;7.40;4.22;;;23.30;79.60;;;;;;5054699;28;20116;-62
2022/06/17 10:41:41;;;;;;;11.48;3.72;;;23.30;79.20;;;;;;5058412;28;20056;-63
2022/06/17 10:44:11;;;;;;;9.23;4.13;;;23.30;79.60;;;;;;5058658;28;20529;-62
2022/06/17 10:46:43;;;;;;;4.25;3.20;;;23.40;79.50;;;;;;5057859;28;20068;-62
2022/06/17 10:49:25;;;;;;;7.88;4.32;;;23.60;79.70;;;;;;5057750;28;20048;-62
2022/06/17 10:51:53;;;;;;;6.18;3.80;;;23.70;78.50;;;;;;5061347;28;20154;-62
2022/06/17 10:54:28;;;;;;;6.63;4.00;;;23.80;77.70;;;;;;5057003;28;20179;-62
2022/06/17 10:57:07;;;;;;;9.43;4.07;;;23.90;78.00;;;;;;5058664;28;20372;-62
2022/06/17 10:59:36;;;;;;;8.35;4.07;;;24.00;78.80;;;;;;5041709;28;20049;-62
2022/06/17 11:02:03;;;;;;;9.43;4.22;;;24.10;77.40;;;;;;5047497;28;20048;-62
2022/06/17 11:04:34;;;;;;;7.25;3.95;;;24.10;76.80;;;;;;5060216;28;20045;-62
2022/06/17 11:07:27;;;;;;;8.45;4.10;;;24.30;77.50;;;;;;5062622;28;20068;-61
2022/06/17 11:10:02;;;;;;;6.88;3.90;;;24.50;76.90;;;;;;5048643;28;20048;-62
2022/06/17 11:12:36;;;;;;;9.68;3.88;;;24.70;76.50;;;;;;5057183;28;20044;-62
2022/06/17 11:15:18;;;;;;;7.22;4.35;;;24.90;76.60;;;;;;5064597;28;20053;-62
2022/06/17 11:17:46;;;;;;;7.25;4.20;;;25.00;75.40;;;;;;5059271;28;20059;-62
2022/06/17 11:20:15;;;;;;;10.30;4.65;;;25.30;75.80;;;;;;5061796;28;20055;-62
2022/06/17 11:22:57;;;;;;;18.13;5.00;;;25.60;74.60;;;;;;5064402;28;20048;-63
2022/06/17 11:25:35;;;;;;;8.17;4.80;;;25.70;73.30;;;;;;5062071;28;20128;-63
2022/06/17 11:28:24;;;;;;;11.13;5.22;;;25.70;72.20;;;;;;5053972;28;20115;-62
2022/06/17 11:30:56;;;;;;;12.00;5.13;;;25.70;72.70;;;;;;5062133;28;20044;-63
2022/06/17 11:33:32;;;;;;;12.23;4.90;;;25.70;71.90;;;;;;5060820;28;20059;-62
2022/06/17 11:36:02;;;;;;;8.73;4.70;;;25.80;71.50;;;;;;5054735;28;20048;-62
2022/06/17 11:38:31;;;;;;;12.85;5.00;;;25.80;71.80;;;;;;5062908;28;20918;-62
2022/06/17 11:41:00;;;;;;;15.18;5.85;;;25.90;71.20;;;;;;5062738;28;20043;-62
2022/06/17 11:43:39;;;;;;;9.27;5.32;;;26.00;69.30;;;;;;5062851;28;20128;-62
2022/06/17 11:46:35;;;;;;;8.65;5.38;;;26.10;69.60;;;;;;5058986;28;20130;-62
2022/06/17 11:49:15;;;;;;;7.20;5.28;;;26.30;69.60;;;;;;5053186;28;20088;-62
2022/06/17 11:51:51;;;;;;;10.60;5.05;;;26.40;68.40;;;;;;5061521;28;20091;-62
2022/06/17 11:54:24;;;;;;;7.38;4.90;;;26.40;68.30;;;;;;5050798;28;20431;-62
2022/06/17 11:56:52;;;;;;;8.50;4.90;;;26.40;67.30;;;;;;5058324;28;20036;-62
2022/06/17 11:59:20;;;;;;;9.98;4.70;;;26.40;67.40;;;;;;5060791;28;20051;-63
2022/06/17 12:02:05;;;;;;;9.55;4.57;;;26.40;67.70;;;;;;5063924;28;20040;-62
2022/06/17 12:04:44;;;;;;;6.80;4.30;;;26.40;67.40;;;;;;5065778;28;20050;-62
2022/06/17 12:07:28;;;;;;;9.30;4.53;;;26.50;66.10;;;;;;5035622;28;20049;-63
2022/06/17 12:10:08;;;;;;;7.25;4.53;;;26.70;67.10;;;;;;5045989;28;20132;-63
2022/06/17 12:12:34;;;;;;;8.93;3.63;;;26.80;64.90;;;;;;5062349;28;20052;-63
2022/06/17 12:15:08;;;;;;;7.32;4.20;;;26.90;63.90;;;;;;5056999;28;20040;-63
2022/06/17 12:17:38;;;;;;;9.38;4.18;;;26.90;62.70;;;;;;5053286;28;20097;-63
2022/06/17 12:20:41;;;;;;;9.43;3.80;;;27.00;62.60;;;;;;5060858;28;20051;-63
2022/06/17 12:23:16;;;;;;;6.60;3.53;;;27.20;62.70;;;;;;5058778;28;20048;-63
2022/06/17 12:26:11;;;;;;;10.05;3.90;;;27.40;63.00;;;;;;5041570;28;20159;-63
2022/06/17 12:28:46;;;;;;;9.07;3.40;;;27.60;62.60;;;;;;5052895;28;20068;-62
2022/06/17 12:31:26;;;;;;;8.88;3.65;;;27.90;62.70;;;;;;5060804;28;20620;-63
2022/06/17 12:34:05;;;;;;;9.18;3.95;;;28.20;61.80;;;;;;5064370;28;20044;-63
2022/06/17 12:36:54;;;;;;;6.80;3.72;;;28.50;61.60;;;;;;5070621;28;20071;-63
2022/06/17 12:39:44;;;;;;;7.90;3.63;;;28.70;60.80;;;;;;5061383;28;20044;-64
2022/06/17 12:42:36;;;;;;;9.73;4.05;;;28.70;60.50;;;;;;5060640;28;20044;-63
2022/06/17 12:45:05;;;;;;;8.47;3.90;;;28.80;58.80;;;;;;5061386;28;20056;-66
2022/06/17 12:47:38;;;;;;;6.95;3.70;;;28.70;58.90;;;;;;5059773;28;20059;-65
2022/06/17 12:53:15;;;;;;;5.20;4.05;;;28.50;58.20;;;;;;5063986;28;20056;-66
2022/06/17 12:55:41;;;;;;;10.07;3.67;;;28.30;58.20;;;;;;5061971;28;20044;-65
2022/06/17 12:58:19;;;;;;;7.03;4.13;;;28.10;60.00;;;;;;5060221;28;20040;-65
2022/06/17 13:00:51;;;;;;;5.38;3.67;;;28.00;59.80;;;;;;5043081;28;20040;-66
2022/06/17 13:03:26;;;;;;;6.95;3.80;;;27.90;59.40;;;;;;5061630;28;20117;-65
2022/06/17 13:05:54;;;;;;;5.20;3.30;;;27.70;59.40;;;;;;5061614;28;20093;-65
2022/06/17 13:08:23;;;;;;;3.80;3.35;;;27.60;59.60;;;;;;5045627;28;20076;-65
2022/06/17 13:10:57;;;;;;;6.45;3.53;;;27.40;59.50;;;;;;5055094;28;20124;-66
2022/06/17 13:13:44;;;;;;;5.32;3.97;;;27.30;60.40;;;;;;5062971;28;20045;-64
2022/06/17 13:16:28;;;;;;;10.60;4.35;;;27.20;60.30;;;;;;5060941;28;21144;-66
2022/06/17 13:19:32;;;;;;;5.97;3.42;;;27.00;60.80;;;;;;5060383;28;20417;-66
2022/06/17 13:22:25;;;;;;;7.13;4.57;;;26.90;61.30;;;;;;5063004;28;20063;-65
2022/06/17 13:24:58;;;;;;;6.97;3.70;;;26.80;61.10;;;;;;5030361;28;20052;-66
2022/06/17 13:27:34;;;;;;;8.30;4.07;;;26.80;61.70;;;;;;5061875;28;20041;-65